createdAt,value
2018-08-07T00:01:01.647Z,21.30
2018-08-07T00:05:55.738Z,21.30
2018-08-07T00:08:22.667Z,21.20
2018-08-07T00:10:50.093Z,21.20
2018-08-07T00:13:17.069Z,21.20
2018-08-07T00:15:44.005Z,21.20
2018-08-07T00:18:11.322Z,21.10
2018-08-07T00:20:38.246Z,21.20
2018-08-07T00:23:05.380Z,21.20
2018-08-07T00:25:32.345Z,21.20
2018-08-07T00:27:59.257Z,21.20
2018-08-07T00:30:26.213Z,21.10
2018-08-07T00:32:53.206Z,21.10
2018-08-07T00:35:20.185Z,21.00
2018-08-07T00:37:47.243Z,20.90
2018-08-07T00:40:15.332Z,20.90
2018-08-07T00:42:42.856Z,20.80
2018-08-07T00:45:12.833Z,20.80
2018-08-07T00:47:39.979Z,20.80
2018-08-07T00:50:10.219Z,20.80
2018-08-07T00:52:37.242Z,20.70
2018-08-07T00:55:04.657Z,20.60
2018-08-07T00:57:31.566Z,20.60
2018-08-07T00:59:58.544Z,20.50
2018-08-07T01:02:25.514Z,20.40
2018-08-07T01:04:52.454Z,20.30
2018-08-07T01:07:19.407Z,20.30
2018-08-07T01:09:46.435Z,20.30
2018-08-07T01:12:13.448Z,20.20
2018-08-07T01:14:40.413Z,20.20
2018-08-07T01:17:07.453Z,20.20
2018-08-07T01:19:34.364Z,20.20
2018-08-07T01:22:01.701Z,20.30
2018-08-07T01:24:28.781Z,20.30
2018-08-07T01:26:56.396Z,20.30
2018-08-07T01:29:23.500Z,20.30
2018-08-07T01:31:50.520Z,20.30
2018-08-07T01:34:17.510Z,20.20
2018-08-07T01:36:44.493Z,20.20
2018-08-07T01:39:11.585Z,20.00
2018-08-07T01:41:38.561Z,19.90
2018-08-07T01:44:06.026Z,19.80
2018-08-07T01:46:33.124Z,19.70
2018-08-07T01:49:00.176Z,19.70
2018-08-07T01:51:27.462Z,19.60
2018-08-07T01:53:54.462Z,19.60
2018-08-07T01:56:21.440Z,19.60
2018-08-07T01:58:48.484Z,19.50
2018-08-07T02:01:15.501Z,19.60
2018-08-07T02:03:42.518Z,19.50
2018-08-07T02:06:09.486Z,19.50
2018-08-07T02:08:36.513Z,19.40
2018-08-07T02:11:03.490Z,19.30
2018-08-07T02:13:30.490Z,19.30
2018-08-07T02:15:57.529Z,19.30
2018-08-07T02:18:24.580Z,19.30
2018-08-07T02:20:51.653Z,19.20
2018-08-07T02:23:18.672Z,19.20
2018-08-07T02:25:45.628Z,19.20
2018-08-07T02:28:12.646Z,19.20
2018-08-07T02:30:39.697Z,19.10
2018-08-07T02:33:06.772Z,19.00
2018-08-07T02:35:33.759Z,19.00
2018-08-07T02:38:00.722Z,18.90
2018-08-07T02:40:27.730Z,18.90
2018-08-07T02:42:54.749Z,18.80
2018-08-07T02:45:21.745Z,18.80
2018-08-07T02:47:49.064Z,18.80
2018-08-07T02:50:18.064Z,18.70
2018-08-07T02:52:45.110Z,18.70
2018-08-07T02:55:12.113Z,18.70
2018-08-07T02:57:39.882Z,18.70
2018-08-07T03:00:09.850Z,18.70
2018-08-07T03:02:36.910Z,18.70
2018-08-07T03:05:05.027Z,18.60
2018-08-07T03:07:32.024Z,18.60
2018-08-07T03:09:59.122Z,18.50
2018-08-07T03:12:26.125Z,18.60
2018-08-07T03:14:53.081Z,18.50
2018-08-07T03:17:20.138Z,18.50
2018-08-07T03:19:47.199Z,18.50
2018-08-07T03:22:14.365Z,18.40
2018-08-07T03:24:41.382Z,18.40
2018-08-07T03:27:08.414Z,18.40
2018-08-07T03:29:35.463Z,18.40
2018-08-07T03:32:02.543Z,18.40
2018-08-07T03:34:29.560Z,18.40
2018-08-07T03:36:56.659Z,18.30
2018-08-07T03:39:23.723Z,18.20
2018-08-07T03:41:50.661Z,18.30
2018-08-07T03:44:17.635Z,18.30
2018-08-07T03:46:44.703Z,18.20
2018-08-07T03:49:11.997Z,18.20
2018-08-07T03:51:38.927Z,18.20
2018-08-07T03:54:05.910Z,18.20
2018-08-07T03:56:32.889Z,18.20
2018-08-07T03:58:59.899Z,18.20
2018-08-07T04:01:26.954Z,18.20
2018-08-07T04:03:54.071Z,18.20
2018-08-07T04:06:21.048Z,18.20
2018-08-07T04:08:47.977Z,18.30
2018-08-07T04:11:15.035Z,18.30
2018-08-07T04:13:41.982Z,18.30
2018-08-07T04:16:09.061Z,18.30
2018-08-07T04:18:36.124Z,18.40
2018-08-07T04:21:03.114Z,18.40
2018-08-07T04:23:30.138Z,18.30
2018-08-07T04:25:57.248Z,18.40
2018-08-07T04:28:24.227Z,18.40
2018-08-07T04:30:51.194Z,18.40
2018-08-07T04:33:18.172Z,18.40
2018-08-07T04:35:45.148Z,18.50
2018-08-07T04:38:12.134Z,18.50
2018-08-07T04:40:39.457Z,18.60
2018-08-07T04:43:06.454Z,18.60
2018-08-07T04:45:33.466Z,18.70
2018-08-07T04:48:00.523Z,18.70
2018-08-07T04:50:27.578Z,18.70
2018-08-07T04:52:54.520Z,18.70
2018-08-07T04:55:21.543Z,18.80
2018-08-07T04:57:48.497Z,18.80
2018-08-07T05:00:17.644Z,18.90
2018-08-07T05:02:45.479Z,18.90
2018-08-07T05:05:12.544Z,19.10
2018-08-07T05:07:39.753Z,19.20
2018-08-07T05:10:10.272Z,19.30
2018-08-07T05:12:37.230Z,19.60
2018-08-07T05:15:05.359Z,20.10
2018-08-07T05:17:32.378Z,20.80
2018-08-07T05:22:26.487Z,21.20
2018-08-07T05:24:53.805Z,21.20
2018-08-07T05:27:20.765Z,21.30
2018-08-07T05:29:47.775Z,20.90
2018-08-07T05:32:14.717Z,20.80
2018-08-07T05:34:41.700Z,20.80
2018-08-07T05:37:08.758Z,21.00
2018-08-07T05:39:35.806Z,21.20
2018-08-07T05:42:02.821Z,21.20
2018-08-07T05:44:29.818Z,21.10
2018-08-07T05:46:56.920Z,21.00
2018-08-07T05:49:24.141Z,21.20
2018-08-07T05:51:51.147Z,21.20
2018-08-07T05:56:45.579Z,21.40
2018-08-07T05:59:12.587Z,21.50
2018-08-07T06:01:39.602Z,21.60
2018-08-07T06:04:06.630Z,21.90
2018-08-07T06:06:33.592Z,22.10
2018-08-07T06:09:00.613Z,22.30
2018-08-07T06:11:27.650Z,22.40
2018-08-07T06:13:54.730Z,22.60
2018-08-07T06:16:21.810Z,22.80
2018-08-07T06:18:48.849Z,22.80
2018-08-07T06:21:15.870Z,23.20
2018-08-07T06:23:42.873Z,23.30
2018-08-07T06:26:09.866Z,23.70
2018-08-07T06:28:36.873Z,24.20
2018-08-07T06:31:03.842Z,24.60
2018-08-07T06:33:30.871Z,24.90
2018-08-07T06:35:57.949Z,25.20
2018-08-07T06:38:24.947Z,25.80
2018-08-07T06:40:51.907Z,25.90
2018-08-07T06:43:18.896Z,26.30
2018-08-07T06:45:45.878Z,26.40
2018-08-07T06:48:12.944Z,26.80
2018-08-07T06:50:39.972Z,27.70
2018-08-07T06:53:06.995Z,27.60
2018-08-07T06:55:34.015Z,27.90
2018-08-07T06:58:00.965Z,27.50
2018-08-07T07:00:27.933Z,27.80
2018-08-07T07:02:54.992Z,27.60
2018-08-07T07:05:22.066Z,28.30
2018-08-07T07:25:04.681Z,28.40
2018-08-07T07:27:31.646Z,30.50
2018-08-07T07:29:58.650Z,30.90
2018-08-07T07:32:25.709Z,31.40
2018-08-07T07:34:52.665Z,31.00
2018-08-07T07:37:19.642Z,31.70
2018-08-07T07:39:46.971Z,31.00
2018-08-07T08:06:46.019Z,32.80
2018-08-07T08:09:13.043Z,33.90
2018-08-07T08:11:40.010Z,33.40
